Terminal Aerodrome Forecast
Issued by NWS Nashville, TN

Home | Current Version | Previous Version | Text Only | Print | Product List | Glossary On
Versions: 1 2 3 4 5 6 7 8 9 10 11 12 13 14 15 16 17 18
394
FTUS44 KOHX 280520
TAFCSV
TAF
KCSV 280520Z 2806/0106 16006KT P6SM OVC015
     FM281000 18006KT P6SM OVC009
     FM281500 18009G16KT 3SM SHRA VCTS OVC009CB
     FM282200 19013G19KT 4SM BR OVC007
     FM010100 18010G17KT 2SM BR OVC003=

USA.gov is the U.S. government's official web portal to all federal, state and local government web resources and services.